createdAt,value
2023-03-21T00:00:12.093Z,81.55
2023-03-21T00:01:11.044Z,81.55
2023-03-21T00:02:11.083Z,81.65
2023-03-21T00:03:11.067Z,81.65
2023-03-21T00:04:11.073Z,81.55
2023-03-21T00:05:15.822Z,81.65
2023-03-21T00:06:11.988Z,81.76
2023-03-21T00:07:10.993Z,81.76
2023-03-21T00:08:10.956Z,81.86
2023-03-21T00:09:10.947Z,81.76
2023-03-21T00:10:16.741Z,81.86
2023-03-21T00:11:11.908Z,81.86
2023-03-21T00:12:10.915Z,81.86
2023-03-21T00:13:10.884Z,81.76
2023-03-21T00:14:10.866Z,82.06
2023-03-21T00:15:10.862Z,82.17
2023-03-21T00:16:14.078Z,82.06
2023-03-21T00:17:11.858Z,82.06
2023-03-21T00:18:10.820Z,82.27
2023-03-21T00:19:10.807Z,82.17
2023-03-21T00:20:10.794Z,82.06
2023-03-21T00:21:39.219Z,82.06
2023-03-21T00:22:11.774Z,82.17
2023-03-21T00:23:10.751Z,82.06
2023-03-21T00:24:10.733Z,81.86
2023-03-21T00:25:10.742Z,82.06
2023-03-21T00:26:10.737Z,81.86
2023-03-21T00:27:39.448Z,81.86
2023-03-21T00:28:11.682Z,81.96
2023-03-21T00:29:10.679Z,81.86
2023-03-21T00:30:10.663Z,81.86
2023-03-21T00:31:10.659Z,81.86
2023-03-21T00:32:10.646Z,81.96
2023-03-21T00:33:22.118Z,81.96
2023-03-21T00:35:45.346Z,81.90
2023-03-21T00:36:11.939Z,81.69
2023-03-21T00:37:10.571Z,81.90
2023-03-21T00:38:10.588Z,81.90
2023-03-21T00:39:10.537Z,81.79
2023-03-21T00:40:16.313Z,81.90
2023-03-21T00:41:23.302Z,82.10
2023-03-21T00:42:11.502Z,82.00
2023-03-21T00:43:10.490Z,82.10
2023-03-21T00:44:10.473Z,82.10
2023-03-21T00:45:10.457Z,82.00
2023-03-21T00:46:10.504Z,82.00
2023-03-21T00:47:10.495Z,81.90
2023-03-21T00:48:10.502Z,82.20
2023-03-21T00:49:10.412Z,82.10
2023-03-21T00:50:10.382Z,82.10
2023-03-21T00:51:10.402Z,82.20
2023-03-21T00:52:20.443Z,82.00
2023-03-21T00:53:11.353Z,82.00
2023-03-21T00:54:10.342Z,82.00
2023-03-21T00:55:10.322Z,82.20
2023-03-21T00:56:10.312Z,82.10
2023-03-21T00:57:10.333Z,82.20
2023-03-21T00:58:10.290Z,82.10
2023-03-21T00:59:10.280Z,82.00
2023-03-21T01:00:10.290Z,82.10
2023-03-21T01:01:10.264Z,82.00
2023-03-21T01:02:10.258Z,81.90
2023-03-21T01:03:23.125Z,81.90
2023-03-21T01:04:11.233Z,82.10
2023-03-21T01:05:10.190Z,82.20
2023-03-21T01:06:10.180Z,82.10
2023-03-21T01:07:10.163Z,81.90
2023-03-21T01:08:23.795Z,82.10
2023-03-21T01:09:11.130Z,82.00
2023-03-21T01:10:10.129Z,81.69
2023-03-21T01:11:10.128Z,81.59
2023-03-21T01:12:10.124Z,81.90
2023-03-21T01:13:10.083Z,81.90
2023-03-21T01:14:22.096Z,81.79
2023-03-21T01:15:11.059Z,81.69
2023-03-21T01:16:10.101Z,81.79
2023-03-21T01:17:10.053Z,81.59
2023-03-21T01:18:10.028Z,81.59
2023-03-21T01:19:22.254Z,81.28
2023-03-21T01:20:10.986Z,81.28
2023-03-21T01:21:09.984Z,81.48
2023-03-21T01:22:09.983Z,81.48
2023-03-21T01:23:09.938Z,81.38
2023-03-21T01:24:09.942Z,81.38
2023-03-21T01:25:21.984Z,81.38
2023-03-21T01:26:10.907Z,81.28
2023-03-21T01:27:09.918Z,81.28
2023-03-21T01:28:09.893Z,81.38
2023-03-21T01:29:09.869Z,81.69
2023-03-21T01:30:19.055Z,81.79
2023-03-21T01:31:10.875Z,81.59
2023-03-21T01:32:09.836Z,81.48
2023-03-21T01:33:09.805Z,81.90
2023-03-21T01:34:09.810Z,81.90
2023-03-21T01:35:09.788Z,82.10
2023-03-21T01:36:13.545Z,82.17
2023-03-21T01:37:09.770Z,82.27
2023-03-21T01:38:09.764Z,82.47
2023-03-21T01:39:09.732Z,82.20
2023-03-21T01:40:09.741Z,82.06
2023-03-21T01:41:19.229Z,81.76
2023-03-21T01:42:10.702Z,82.06
2023-03-21T01:43:09.692Z,81.96
2023-03-21T01:44:09.668Z,81.86
2023-03-21T01:45:09.654Z,82.06
2023-03-21T01:46:09.759Z,82.27
2023-03-21T01:47:11.939Z,82.47
2023-03-21T01:48:09.758Z,82.57
2023-03-21T01:49:09.658Z,82.37
2023-03-21T01:50:09.582Z,82.51
2023-03-21T01:51:09.563Z,82.71
2023-03-21T01:52:15.280Z,82.62
2023-03-21T01:53:10.533Z,82.51
2023-03-21T01:54:09.526Z,82.31
2023-03-21T01:55:09.534Z,82.51
2023-03-21T01:56:09.503Z,82.51
2023-03-21T01:57:09.493Z,82.71
2023-03-21T01:58:09.591Z,83.23
2023-03-21T01:59:09.479Z,82.92
2023-03-21T02:00:09.446Z,83.13
2023-03-21T02:01:09.487Z,83.44
2023-03-21T02:02:09.442Z,83.64
2023-03-21T02:03:15.125Z,83.75
2023-03-21T02:04:10.426Z,84.26
2023-03-21T02:05:09.372Z,84.36
2023-03-21T02:06:09.388Z,84.05
2023-03-21T02:07:09.357Z,83.54
2023-03-21T02:08:09.345Z,83.85
2023-03-21T02:09:09.325Z,84.47
2023-03-21T02:10:09.309Z,84.56
2023-03-21T02:11:09.294Z,84.26
2023-03-21T02:12:09.301Z,83.95
2023-03-21T02:13:09.264Z,84.67
2023-03-21T02:14:10.102Z,84.88
2023-03-21T02:15:09.237Z,84.77
2023-03-21T02:16:09.253Z,84.36
2023-03-21T02:17:09.231Z,84.36
2023-03-21T02:18:09.198Z,84.67
2023-03-21T02:19:09.178Z,84.56
2023-03-21T02:20:09.190Z,84.56
2023-03-21T02:21:09.149Z,84.88
2023-03-21T02:22:09.162Z,85.12
2023-03-21T02:23:09.119Z,85.63
2023-03-21T02:24:09.118Z,85.84
2023-03-21T02:25:21.169Z,85.53
2023-03-21T02:26:10.086Z,84.81
2023-03-21T02:27:09.109Z,84.81
2023-03-21T02:28:09.058Z,84.71
2023-03-21T02:29:09.050Z,85.12
2023-03-21T02:30:09.934Z,85.43
2023-03-21T02:31:09.063Z,85.43
2023-03-21T02:32:19.977Z,85.43
2023-03-21T02:33:09.997Z,85.43
2023-03-21T02:34:08.978Z,85.84
2023-03-21T02:35:08.976Z,85.94
2023-03-21T02:36:14.252Z,86.35
2023-03-21T02:37:10.012Z,86.35
2023-03-21T02:38:08.929Z,86.46
2023-03-21T02:39:08.936Z,86.29
2023-03-21T02:40:08.897Z,86.19
2023-03-21T02:41:18.049Z,86.60
2023-03-21T02:42:09.913Z,86.80
2023-03-21T02:43:17.049Z,86.60
2023-03-21T02:44:09.877Z,86.50
2023-03-21T02:45:08.832Z,86.50
2023-03-21T02:46:08.867Z,86.60
2023-03-21T02:47:08.843Z,86.50
2023-03-21T02:48:14.555Z,86.50
2023-03-21T02:49:09.850Z,86.80
2023-03-21T02:50:08.776Z,86.91
2023-03-21T02:51:08.755Z,86.70
2023-03-21T02:52:15.582Z,86.60
2023-03-21T02:53:09.740Z,86.60
2023-03-21T02:55:09.707Z,86.60
2023-03-21T02:56:08.687Z,86.70
2023-03-21T02:57:08.687Z,86.70
2023-03-21T02:58:13.085Z,86.60
2023-03-21T02:59:08.688Z,87.01
2023-03-21T03:00:16.130Z,87.12
2023-03-21T03:01:09.670Z,87.22
2023-03-21T03:02:08.618Z,87.42
2023-03-21T03:03:11.460Z,87.46
2023-03-21T03:04:09.597Z,87.98
2023-03-21T03:05:18.023Z,88.39
2023-03-21T03:06:09.565Z,88.29
2023-03-21T03:07:08.572Z,88.70
2023-03-21T03:08:08.553Z,89.01
2023-03-21T03:09:08.538Z,89.01
2023-03-21T03:10:08.498Z,89.22
2023-03-21T03:11:08.501Z,89.42
2023-03-21T03:12:08.489Z,89.62
2023-03-21T03:13:08.477Z,89.73
2023-03-21T03:14:32.174Z,89.73
2023-03-21T03:15:09.440Z,89.62
2023-03-21T03:16:08.439Z,89.42
2023-03-21T03:17:08.432Z,89.22
2023-03-21T03:18:08.404Z,89.01
2023-03-21T03:19:08.379Z,89.01
2023-03-21T03:20:16.260Z,89.42
2023-03-21T03:21:09.373Z,89.42
2023-03-21T03:22:08.372Z,89.11
2023-03-21T03:23:08.369Z,89.01
2023-03-21T03:24:08.318Z,89.01
2023-03-21T03:25:19.742Z,88.90
2023-03-21T03:26:09.300Z,89.01
2023-03-21T03:27:08.298Z,88.80
2023-03-21T03:28:08.256Z,89.01
2023-03-21T03:29:08.247Z,88.90
2023-03-21T03:30:08.226Z,88.80
2023-03-21T03:31:10.107Z,89.31
2023-03-21T03:32:08.278Z,89.73
2023-03-21T03:33:08.198Z,89.83
2023-03-21T03:34:08.201Z,89.62
2023-03-21T03:35:08.198Z,89.73
2023-03-21T03:36:09.468Z,89.94
2023-03-21T03:37:08.165Z,89.83
2023-03-21T03:38:08.141Z,90.28
2023-03-21T03:39:08.123Z,90.28
2023-03-21T03:40:08.107Z,89.87
2023-03-21T03:41:08.096Z,89.56
2023-03-21T03:42:21.770Z,89.25
2023-03-21T03:43:09.055Z,89.15
2023-03-21T03:44:08.053Z,89.97
2023-03-21T03:45:08.031Z,91.00
2023-03-21T03:46:08.065Z,90.80
2023-03-21T03:47:08.016Z,90.18
2023-03-21T03:48:08.093Z,90.08
2023-03-21T03:49:07.988Z,89.77
2023-03-21T03:50:07.969Z,89.46
2023-03-21T03:51:07.954Z,89.05
2023-03-21T03:52:07.943Z,89.77
2023-03-21T03:53:16.353Z,89.87
2023-03-21T03:54:08.914Z,89.87
2023-03-21T03:55:07.899Z,90.18
2023-03-21T03:56:07.896Z,90.59
2023-03-21T03:57:07.890Z,90.49
2023-03-21T03:58:16.324Z,90.80
2023-03-21T03:59:08.859Z,91.00
2023-03-21T04:00:07.828Z,90.90
2023-03-21T04:01:07.838Z,90.49
2023-03-21T04:02:07.892Z,89.67
2023-03-21T04:03:07.849Z,89.15
2023-03-21T04:04:13.226Z,88.95
2023-03-21T04:05:08.772Z,88.53
2023-03-21T04:06:07.751Z,88.53
2023-03-21T04:07:07.776Z,88.84
2023-03-21T04:08:07.747Z,89.46
2023-03-21T04:09:18.794Z,89.77
2023-03-21T04:10:08.712Z,89.77
2023-03-21T04:11:07.691Z,90.39
2023-03-21T04:12:07.692Z,90.49
2023-03-21T04:13:07.682Z,90.69
2023-03-21T04:14:07.660Z,91.31
2023-03-21T04:15:10.668Z,91.42
2023-03-21T04:16:07.679Z,91.42
2023-03-21T04:17:07.812Z,91.31
2023-03-21T04:18:07.660Z,91.21
2023-03-21T04:19:07.621Z,91.42
2023-03-21T04:20:12.151Z,91.42
2023-03-21T04:21:08.573Z,91.52
2023-03-21T04:22:07.633Z,91.62
2023-03-21T04:23:07.572Z,91.62
2023-03-21T04:24:07.510Z,91.62
2023-03-21T04:25:07.513Z,91.72
2023-03-21T04:26:07.479Z,91.93
2023-03-21T04:27:07.490Z,92.03
2023-03-21T04:28:07.472Z,91.93
2023-03-21T04:29:07.452Z,91.83
2023-03-21T04:30:07.453Z,91.93
2023-03-21T04:31:16.130Z,91.83
2023-03-21T04:32:08.443Z,91.93
2023-03-21T04:33:07.396Z,91.83
2023-03-21T04:34:07.381Z,91.93
2023-03-21T04:35:07.373Z,92.03
2023-03-21T04:36:07.421Z,92.03
2023-03-21T04:37:07.361Z,91.93
2023-03-21T04:38:07.329Z,92.03
2023-03-21T04:39:07.327Z,92.34
2023-03-21T04:40:07.314Z,92.55
2023-03-21T04:41:07.288Z,92.55
2023-03-21T04:42:07.278Z,92.34
2023-03-21T04:43:07.289Z,92.55
2023-03-21T04:44:07.269Z,92.55
2023-03-21T04:45:07.249Z,92.34
2023-03-21T04:46:07.259Z,92.24
2023-03-21T04:47:07.225Z,92.24
2023-03-21T04:48:07.233Z,92.03
2023-03-21T04:49:07.191Z,91.93
2023-03-21T04:50:07.163Z,92.03
2023-03-21T04:51:07.178Z,92.24
2023-03-21T04:52:07.147Z,92.24
2023-03-21T04:53:07.148Z,92.14
2023-03-21T04:54:44.462Z,91.93
2023-03-21T04:55:44.357Z,91.83
2023-03-21T04:56:44.357Z,91.62
2023-03-21T04:57:44.342Z,91.42
2023-03-21T04:58:44.331Z,91.31
2023-03-21T04:59:44.300Z,91.11
2023-03-21T05:00:44.346Z,90.80
2023-03-21T05:01:44.290Z,90.59
2023-03-21T05:02:44.261Z,90.49
2023-03-21T05:03:44.262Z,90.39
2023-03-21T05:04:44.240Z,90.49
2023-03-21T05:05:44.221Z,90.59
2023-03-21T05:06:44.231Z,90.59
2023-03-21T05:07:44.191Z,90.28
2023-03-21T05:08:44.180Z,90.18
2023-03-21T05:09:44.159Z,89.97
2023-03-21T05:10:44.182Z,90.28
2023-03-21T05:11:44.176Z,90.39
2023-03-21T05:12:44.128Z,90.28
2023-03-21T05:13:44.114Z,90.08
2023-03-21T05:14:44.096Z,89.87
2023-03-21T05:15:44.087Z,90.08
2023-03-21T05:16:44.141Z,90.18
2023-03-21T05:17:44.057Z,90.18
2023-03-21T05:18:44.048Z,90.08
2023-03-21T05:19:44.059Z,89.97
2023-03-21T05:20:44.035Z,90.08
2023-03-21T05:21:44.021Z,89.97
2023-03-21T05:22:43.989Z,89.77
2023-03-21T05:23:43.982Z,89.46
2023-03-21T05:24:43.957Z,89.36
2023-03-21T05:25:43.945Z,89.15
2023-03-21T05:26:43.970Z,89.36
2023-03-21T05:27:43.917Z,89.67
2023-03-21T05:28:43.913Z,90.28
2023-03-21T05:29:43.897Z,90.69
2023-03-21T05:30:43.904Z,91.00
2023-03-21T05:31:43.874Z,91.11
2023-03-21T05:32:43.874Z,91.11
2023-03-21T05:33:43.856Z,91.21
2023-03-21T05:34:43.846Z,91.11
2023-03-21T05:35:43.895Z,91.00
2023-03-21T05:36:43.835Z,90.86
2023-03-21T05:37:43.800Z,90.96
2023-03-21T05:38:43.786Z,91.06
2023-03-21T05:39:43.767Z,91.17
2023-03-21T05:40:43.768Z,91.27
2023-03-21T05:41:43.753Z,91.06
2023-03-21T05:42:43.739Z,90.96
2023-03-21T05:43:43.726Z,90.86
2023-03-21T05:44:43.706Z,90.75
2023-03-21T05:45:43.694Z,90.55
2023-03-21T05:46:43.699Z,90.34
2023-03-21T05:47:43.719Z,90.24
2023-03-21T05:48:43.657Z,90.14
2023-03-21T05:49:43.647Z,90.24
2023-03-21T05:50:43.616Z,90.55
2023-03-21T05:51:43.609Z,90.66
2023-03-21T05:52:43.594Z,90.45
2023-03-21T05:53:43.593Z,90.24
2023-03-21T05:54:43.586Z,90.14
2023-03-21T05:55:43.567Z,89.94
2023-03-21T05:56:43.546Z,89.94
2023-03-21T05:57:43.535Z,90.09
2023-03-21T05:58:43.510Z,90.00
2023-03-21T05:59:43.498Z,89.69
2023-03-21T06:00:43.491Z,89.79
2023-03-21T06:01:43.500Z,90.00
2023-03-21T06:02:43.497Z,90.00
2023-03-21T06:03:43.549Z,90.20
2023-03-21T06:04:43.446Z,90.30
2023-03-21T06:05:43.424Z,90.30
2023-03-21T06:06:43.408Z,90.20
2023-03-21T06:07:43.413Z,90.20
2023-03-21T06:08:43.375Z,90.09
2023-03-21T06:09:43.386Z,90.06
2023-03-21T06:10:43.356Z,89.95
2023-03-21T06:11:43.345Z,90.06
2023-03-21T06:12:43.336Z,89.95
2023-03-21T06:13:43.308Z,89.75
2023-03-21T06:14:43.302Z,89.54
2023-03-21T06:15:43.317Z,89.34
2023-03-21T06:16:43.272Z,89.23
2023-03-21T06:17:43.272Z,89.23
2023-03-21T06:18:43.238Z,89.23
2023-03-21T06:19:43.243Z,89.23
2023-03-21T06:20:43.212Z,88.92
2023-03-21T06:21:43.219Z,88.72
2023-03-21T06:22:43.202Z,88.68
2023-03-21T06:23:43.187Z,88.68
2023-03-21T06:24:43.172Z,88.47
2023-03-21T06:25:43.159Z,88.47
2023-03-21T06:26:43.146Z,88.37
2023-03-21T06:27:43.140Z,88.37
2023-03-21T06:28:43.120Z,88.27
2023-03-21T06:29:43.103Z,88.06
2023-03-21T06:30:43.087Z,87.96
2023-03-21T06:31:43.114Z,87.96
2023-03-21T06:32:43.063Z,87.96
2023-03-21T06:33:43.042Z,87.85
2023-03-21T06:34:43.067Z,87.75
2023-03-21T06:35:43.087Z,87.82
2023-03-21T06:36:43.001Z,87.92
2023-03-21T06:37:43.002Z,88.02
2023-03-21T06:38:42.983Z,87.82
2023-03-21T06:39:42.962Z,87.40
2023-03-21T06:40:42.950Z,87.40
2023-03-21T06:41:42.941Z,87.40
2023-03-21T06:42:42.923Z,87.40
2023-03-21T06:43:42.916Z,87.40
2023-03-21T06:44:42.902Z,87.40
2023-03-21T06:45:42.884Z,87.51
2023-03-21T06:46:42.910Z,87.51
2023-03-21T06:47:43.017Z,87.26
2023-03-21T06:48:42.852Z,86.85
2023-03-21T06:49:42.837Z,86.75
2023-03-21T06:50:42.837Z,86.65
2023-03-21T06:51:42.828Z,86.33
2023-03-21T06:52:42.790Z,86.13
2023-03-21T06:53:42.785Z,86.24
2023-03-21T06:54:42.761Z,86.03
2023-03-21T06:55:42.759Z,85.72
2023-03-21T06:56:42.737Z,85.62
2023-03-21T06:57:42.756Z,85.72
2023-03-21T06:58:42.708Z,85.62
2023-03-21T06:59:42.717Z,85.41
2023-03-21T07:00:42.775Z,85.52
2023-03-21T07:01:42.671Z,85.52
2023-03-21T07:02:42.669Z,85.38
2023-03-21T07:03:42.661Z,85.06
2023-03-21T07:04:42.660Z,84.96
2023-03-21T07:05:42.619Z,85.38
2023-03-21T07:06:42.612Z,85.27
2023-03-21T07:07:42.611Z,85.17
2023-03-21T07:08:42.588Z,85.27
2023-03-21T07:09:42.561Z,85.06
2023-03-21T07:10:45.224Z,84.92
2023-03-21T07:11:42.551Z,85.03
2023-03-21T07:12:42.521Z,85.30
2023-03-21T07:13:42.525Z,84.44
2023-03-21T07:14:42.499Z,83.17
2023-03-21T07:15:42.500Z,81.73
2023-03-21T07:16:42.478Z,81.73
2023-03-21T07:17:42.481Z,82.21
2023-03-21T07:18:42.450Z,81.70
2023-03-21T07:19:44.754Z,80.46
2023-03-21T07:20:42.419Z,79.44
2023-03-21T07:21:42.400Z,80.05
2023-03-21T07:22:42.416Z,80.33
2023-03-21T07:23:42.396Z,80.33
2023-03-21T07:24:42.361Z,80.02
2023-03-21T07:25:42.390Z,80.12
2023-03-21T07:26:42.332Z,80.43
2023-03-21T07:27:42.362Z,80.33
2023-03-21T07:28:42.309Z,80.02
2023-03-21T07:29:42.296Z,79.82
2023-03-21T07:30:42.287Z,79.50
2023-03-21T07:31:42.356Z,79.71
2023-03-21T07:32:42.262Z,79.91
2023-03-21T07:33:42.243Z,79.71
2023-03-21T07:34:42.232Z,80.02
2023-03-21T07:35:42.250Z,80.22
2023-03-21T07:36:42.198Z,80.33
2023-03-21T07:37:42.279Z,80.08
2023-03-21T07:38:42.187Z,80.19
2023-03-21T07:39:42.166Z,79.68
2023-03-21T07:40:42.152Z,79.98
2023-03-21T07:41:42.158Z,80.39
2023-03-21T07:42:42.141Z,80.39
2023-03-21T07:43:42.115Z,79.98
2023-03-21T07:44:42.119Z,79.68
2023-03-21T07:45:42.313Z,79.57
2023-03-21T07:46:42.078Z,79.37
2023-03-21T07:47:42.118Z,79.43
2023-03-21T07:48:42.049Z,79.13
2023-03-21T07:49:42.153Z,78.52
2023-03-21T07:50:42.064Z,77.70
2023-03-21T07:51:42.029Z,78.11
2023-03-21T07:52:43.266Z,77.90
2023-03-21T07:53:42.024Z,77.59
2023-03-21T07:54:41.957Z,78.00
2023-03-21T07:55:41.946Z,78.17
2023-03-21T07:56:41.927Z,77.97
2023-03-21T07:57:41.947Z,78.07
2023-03-21T07:58:41.898Z,77.66
2023-03-21T07:59:41.893Z,76.94
2023-03-21T08:00:41.887Z,76.84
2023-03-21T08:01:41.875Z,76.43
2023-03-21T08:02:41.938Z,76.74
2023-03-21T08:03:41.914Z,76.64
2023-03-21T08:04:41.838Z,76.53
2023-03-21T08:05:42.222Z,76.64
2023-03-21T08:06:41.807Z,75.82
2023-03-21T08:07:41.812Z,76.53
2023-03-21T08:08:41.786Z,77.04
2023-03-21T08:09:41.770Z,77.35
2023-03-21T08:10:41.746Z,77.04
2023-03-21T08:11:41.745Z,76.64
2023-03-21T08:12:41.732Z,76.60
2023-03-21T08:13:41.708Z,76.60
2023-03-21T08:14:41.694Z,76.09
2023-03-21T08:15:41.676Z,76.19
2023-03-21T08:16:41.687Z,76.50
2023-03-21T08:17:41.681Z,76.16
2023-03-21T08:18:41.657Z,76.16
2023-03-21T08:19:41.624Z,75.54
2023-03-21T08:20:41.636Z,75.54
2023-03-21T08:21:41.613Z,74.83
2023-03-21T08:22:41.605Z,74.90
2023-03-21T08:23:41.576Z,74.38
2023-03-21T08:24:41.566Z,74.38
2023-03-21T08:25:41.560Z,73.27
2023-03-21T08:26:41.566Z,73.88
2023-03-21T08:27:41.545Z,74.18
2023-03-21T08:28:41.504Z,73.77
2023-03-21T08:29:41.501Z,73.47
2023-03-21T08:30:41.493Z,73.57
2023-03-21T08:31:41.500Z,73.67
2023-03-21T08:32:41.457Z,74.08
2023-03-21T08:33:41.449Z,75.00
2023-03-21T08:34:41.421Z,75.00
2023-03-21T08:35:41.824Z,74.79
2023-03-21T08:36:41.406Z,75.00
2023-03-21T08:37:41.403Z,75.10
2023-03-21T08:38:41.378Z,74.96
2023-03-21T08:39:41.372Z,74.55
2023-03-21T08:40:41.347Z,74.76
2023-03-21T08:41:41.337Z,74.86
2023-03-21T08:42:41.325Z,74.96
2023-03-21T08:43:41.308Z,75.16
2023-03-21T08:44:41.292Z,74.93
2023-03-21T08:45:41.297Z,74.83
2023-03-21T08:46:41.303Z,74.73
2023-03-21T08:47:41.350Z,73.91
2023-03-21T08:48:41.243Z,73.60
2023-03-21T08:49:41.224Z,73.40
2023-03-21T08:50:41.218Z,73.60
2023-03-21T08:51:41.249Z,74.11
2023-03-21T08:52:41.198Z,73.30
2023-03-21T08:53:41.226Z,73.50
2023-03-21T08:54:41.194Z,72.58
2023-03-21T08:55:41.145Z,70.85
2023-03-21T08:56:41.135Z,71.56
2023-03-21T08:57:41.129Z,72.45
2023-03-21T08:58:41.107Z,73.26
2023-03-21T08:59:41.096Z,73.06
2023-03-21T09:00:41.078Z,72.96
2023-03-21T09:01:41.112Z,72.75
2023-03-21T09:02:41.061Z,72.45
2023-03-21T09:03:41.055Z,72.14
2023-03-21T09:04:41.095Z,72.34
2023-03-21T09:05:41.013Z,72.52
2023-03-21T09:06:41.060Z,73.02
2023-03-21T09:07:41.004Z,72.72
2023-03-21T09:08:40.977Z,72.72
2023-03-21T09:09:40.967Z,72.62
2023-03-21T09:10:40.943Z,72.31
2023-03-21T09:11:40.939Z,72.31
2023-03-21T09:12:40.926Z,71.60
2023-03-21T09:13:40.917Z,71.60
2023-03-21T09:14:40.886Z,71.87
2023-03-21T09:15:41.042Z,72.08
2023-03-21T09:16:40.878Z,69.70
2023-03-21T09:17:40.897Z,69.16
2023-03-21T09:18:40.851Z,69.36
2023-03-21T09:19:40.838Z,70.25
2023-03-21T09:20:40.824Z,69.09
2023-03-21T09:21:40.800Z,68.86
2023-03-21T09:22:42.594Z,69.34
2023-03-21T09:23:40.778Z,68.08
2023-03-21T09:24:40.755Z,67.24
2023-03-21T09:25:40.935Z,66.40
2023-03-21T09:26:40.726Z,66.40
2023-03-21T09:27:41.697Z,66.27
2023-03-21T09:28:40.745Z,65.25
2023-03-21T09:29:40.687Z,66.03
2023-03-21T09:30:40.676Z,65.83
2023-03-21T09:31:40.721Z,65.19
2023-03-21T09:32:40.656Z,64.18
2023-03-21T09:33:40.656Z,64.86
2023-03-21T09:34:40.763Z,64.73
2023-03-21T09:35:41.264Z,64.29
2023-03-21T09:36:40.607Z,64.26
2023-03-21T09:37:40.593Z,61.63
2023-03-21T09:38:40.581Z,60.06
2023-03-21T09:39:40.578Z,60.74
2023-03-21T09:40:40.540Z,61.79
2023-03-21T09:41:40.534Z,58.64
2023-03-21T09:42:40.533Z,58.11
2023-03-21T09:43:40.514Z,58.61
2023-03-21T09:44:40.488Z,57.45
2023-03-21T09:45:40.627Z,56.04
2023-03-21T09:46:40.502Z,58.42
2023-03-21T09:47:40.497Z,55.51
2023-03-21T09:48:53.966Z,54.80
2023-03-21T09:49:41.454Z,54.20
2023-03-21T09:50:40.421Z,55.61
2023-03-21T09:51:40.428Z,55.79
2023-03-21T09:52:40.403Z,58.09
2023-03-21T09:53:40.372Z,56.19
2023-03-21T09:54:40.353Z,55.79
2023-03-21T09:55:40.866Z,57.19
2023-03-21T09:56:40.652Z,56.99
2023-03-21T09:57:40.354Z,52.87
2023-03-21T09:58:40.308Z,55.99
2023-03-21T09:59:40.413Z,55.18
2023-03-21T10:00:40.357Z,55.79
2023-03-21T10:01:40.264Z,56.66
2023-03-21T10:02:40.262Z,55.26
2023-03-21T10:03:40.233Z,56.66
2023-03-21T10:04:40.325Z,55.23
2023-03-21T10:05:40.532Z,55.13
2023-03-21T10:06:40.410Z,55.13
2023-03-21T10:07:40.185Z,54.90
2023-03-21T10:08:40.162Z,53.80
2023-03-21T10:09:40.167Z,54.90
2023-03-21T10:10:40.572Z,55.71
2023-03-21T10:11:40.125Z,56.10
2023-03-21T10:12:40.132Z,54.70
2023-03-21T10:13:40.094Z,54.40
2023-03-21T10:14:40.092Z,54.40
2023-03-21T10:15:40.341Z,54.00
2023-03-21T10:16:40.088Z,50.99
2023-03-21T10:17:40.064Z,52.49
2023-03-21T10:18:40.042Z,51.21
2023-03-21T10:19:40.018Z,53.32
2023-03-21T10:20:40.018Z,54.83
2023-03-21T10:22:41.017Z,54.43
2023-03-21T10:23:39.972Z,54.33
2023-03-21T10:24:39.961Z,54.60
2023-03-21T10:25:40.255Z,54.70
2023-03-21T10:26:39.931Z,54.77
2023-03-21T10:27:39.937Z,51.26
2023-03-21T10:28:52.375Z,52.17
2023-03-21T10:29:40.963Z,53.97
2023-03-21T10:30:39.879Z,54.35
2023-03-21T10:31:39.931Z,53.55
2023-03-21T10:32:39.928Z,53.82
2023-03-21T10:33:39.836Z,53.92
2023-03-21T10:34:39.824Z,51.12
2023-03-21T10:35:40.493Z,51.62
2023-03-21T10:36:39.804Z,52.52
2023-03-21T10:37:39.794Z,54.60
2023-03-21T10:38:39.772Z,53.00
2023-03-21T10:39:39.769Z,51.27
2023-03-21T10:40:39.752Z,51.37
2023-03-21T10:41:39.730Z,53.27
2023-03-21T10:42:39.722Z,53.77
2023-03-21T10:43:39.705Z,52.17
2023-03-21T10:44:39.687Z,47.86
2023-03-21T10:45:40.012Z,50.57
2023-03-21T10:46:39.950Z,48.96
2023-03-21T10:47:39.933Z,49.96
2023-03-21T10:48:39.795Z,47.36
2023-03-21T10:50:05.463Z,50.16
2023-03-21T10:50:40.693Z,53.77
2023-03-21T10:51:39.592Z,52.57
2023-03-21T10:52:39.595Z,51.27
2023-03-21T10:53:39.572Z,51.27
2023-03-21T10:54:39.565Z,50.96
2023-03-21T10:55:39.959Z,51.97
2023-03-21T10:56:39.538Z,53.47
2023-03-21T10:57:39.538Z,52.27
2023-03-21T10:58:39.527Z,51.67
2023-03-21T10:59:39.484Z,50.87
2023-03-21T11:00:39.473Z,52.27
2023-03-21T11:01:39.546Z,50.87
2023-03-21T11:02:39.529Z,50.96
2023-03-21T11:03:39.432Z,47.56
2023-03-21T11:04:39.424Z,47.96
2023-03-21T11:05:39.630Z,52.47
2023-03-21T11:06:39.410Z,50.37
2023-03-21T11:07:39.397Z,50.96
2023-03-21T11:08:39.393Z,50.76
2023-03-21T11:09:39.355Z,49.07
2023-03-21T11:10:39.336Z,49.87
2023-03-21T11:11:39.341Z,52.07
2023-03-21T11:12:39.340Z,51.67
2023-03-21T11:13:39.301Z,47.86
2023-03-21T11:14:39.289Z,48.99
2023-03-21T11:15:39.610Z,47.78
2023-03-21T11:16:40.522Z,49.58
2023-03-21T11:17:39.260Z,50.69
2023-03-21T11:18:39.241Z,50.69
2023-03-21T11:19:39.275Z,51.89
2023-03-21T11:20:39.236Z,52.29
2023-03-21T11:21:39.192Z,50.39
2023-03-21T11:22:39.192Z,51.79
2023-03-21T11:23:39.186Z,51.69
2023-03-21T11:24:39.164Z,51.29
2023-03-21T11:25:39.439Z,51.29
2023-03-21T11:26:39.154Z,50.49
2023-03-21T11:27:39.126Z,50.39
2023-03-21T11:28:39.159Z,51.29
2023-03-21T11:29:39.108Z,51.97
2023-03-21T11:30:39.126Z,50.16
2023-03-21T11:31:39.070Z,53.77
2023-03-21T11:32:39.068Z,50.87
2023-03-21T11:33:39.038Z,52.57
2023-03-21T11:34:39.022Z,52.47
2023-03-21T11:35:39.318Z,49.57
2023-03-21T11:36:39.090Z,51.69
2023-03-21T11:37:38.983Z,52.80
2023-03-21T11:38:39.014Z,53.19
2023-03-21T11:39:38.958Z,51.99
2023-03-21T11:40:40.622Z,52.39
2023-03-21T11:41:38.929Z,51.39
2023-03-21T11:42:38.926Z,52.27
2023-03-21T11:43:38.896Z,53.27
2023-03-21T11:44:38.886Z,52.84
2023-03-21T11:45:39.243Z,51.04
2023-03-21T11:46:38.921Z,52.04
2023-03-21T11:47:38.918Z,52.32
2023-03-21T11:48:38.842Z,52.22
2023-03-21T11:49:38.831Z,53.62
2023-03-21T11:50:38.818Z,51.32
2023-03-21T11:51:38.832Z,50.32
2023-03-21T11:52:38.797Z,48.72
2023-03-21T11:53:38.787Z,49.04
2023-03-21T11:54:38.757Z,50.54
2023-03-21T11:55:39.133Z,50.54
2023-03-21T11:56:38.738Z,48.84
2023-03-21T11:57:38.809Z,52.24
2023-03-21T11:58:38.756Z,50.84
2023-03-21T11:59:38.686Z,50.04
2023-03-21T12:00:38.688Z,51.46
2023-03-21T12:01:38.698Z,49.46
2023-03-21T12:02:38.712Z,49.16
2023-03-21T12:03:47.551Z,50.49
2023-03-21T12:04:39.721Z,50.69
2023-03-21T12:05:38.902Z,51.39
2023-03-21T12:06:38.670Z,53.87
2023-03-21T12:07:38.599Z,51.46
2023-03-21T12:08:38.569Z,51.37
2023-03-21T12:09:38.575Z,54.17
2023-03-21T12:10:38.545Z,52.57
2023-03-21T12:11:38.533Z,51.07
2023-03-21T12:12:39.670Z,50.76
2023-03-21T12:13:38.496Z,51.67
2023-03-21T12:14:38.496Z,52.84
2023-03-21T12:15:38.951Z,51.64
2023-03-21T12:16:38.526Z,52.72
2023-03-21T12:17:38.474Z,53.12
2023-03-21T12:18:38.479Z,53.12
2023-03-21T12:19:38.461Z,52.82
2023-03-21T12:20:38.432Z,53.62
2023-03-21T12:21:38.401Z,52.89
2023-03-21T12:22:38.470Z,52.29
2023-03-21T12:23:38.468Z,52.00
2023-03-21T12:24:38.397Z,51.09
2023-03-21T12:25:38.687Z,51.69
2023-03-21T12:26:38.369Z,52.00
2023-03-21T12:27:38.326Z,50.89
2023-03-21T12:28:38.307Z,49.59
2023-03-21T12:29:38.282Z,50.59
2023-03-21T12:30:38.352Z,51.79
2023-03-21T12:31:38.311Z,51.89
2023-03-21T12:32:38.262Z,50.49
2023-03-21T12:33:38.236Z,49.59
2023-03-21T12:34:38.269Z,51.20
2023-03-21T12:35:38.486Z,50.89
2023-03-21T12:36:38.195Z,50.52
2023-03-21T12:37:38.209Z,51.92
2023-03-21T12:38:38.188Z,49.72
2023-03-21T12:39:38.152Z,49.54
2023-03-21T12:40:38.140Z,50.04
2023-03-21T12:41:38.117Z,50.14
2023-03-21T12:42:38.152Z,50.84
2023-03-21T12:43:38.094Z,51.77
2023-03-21T12:44:38.115Z,52.07
2023-03-21T12:45:46.713Z,51.46
2023-03-21T12:46:39.099Z,48.36
2023-03-21T12:47:38.069Z,50.37
2023-03-21T12:48:38.042Z,50.37
2023-03-21T12:49:38.017Z,49.57
2023-03-21T12:50:38.034Z,49.26
2023-03-21T12:51:37.989Z,51.37
2023-03-21T12:52:37.999Z,50.46
2023-03-21T12:53:37.982Z,52.27
2023-03-21T12:54:37.948Z,52.57
2023-03-21T12:55:38.313Z,51.07